createdAt,value
2019-04-04T00:01:59.458Z,1
2019-04-04T00:04:59.534Z,1.3
2019-04-04T00:08:00.847Z,1.2
2019-04-04T00:10:59.708Z,1.3
2019-04-04T00:13:59.639Z,1.2
2019-04-04T00:16:59.484Z,1.3
2019-04-04T00:20:01.816Z,1.3
2019-04-04T00:22:59.500Z,1.3
2019-04-04T00:25:59.532Z,1.2
2019-04-04T00:29:02.087Z,1.3
2019-04-04T00:31:59.624Z,1.3
2019-04-04T00:35:00.744Z,1.1
2019-04-04T00:37:59.551Z,1.1
2019-04-04T00:40:59.566Z,1.1
2019-04-04T00:43:59.889Z,1.3
2019-04-04T00:47:02.446Z,1.3
2019-04-04T00:49:59.486Z,1.3
2019-04-04T00:52:59.389Z,1.4
2019-04-04T00:55:59.489Z,1.1
2019-04-04T00:58:59.602Z,1.1
2019-04-04T01:01:59.586Z,1.3
2019-04-04T01:05:02.578Z,1.1
2019-04-04T01:07:59.497Z,1.2
2019-04-04T01:10:59.526Z,1.1
2019-04-04T01:13:59.495Z,1.4
2019-04-04T01:16:59.593Z,1.2
2019-04-04T01:19:59.668Z,1.3
2019-04-04T01:22:59.644Z,1.3
2019-04-04T01:25:59.377Z,1.1
2019-04-04T01:28:59.520Z,1.1
2019-04-04T01:31:59.407Z,1.2
2019-04-04T01:34:59.867Z,1.1
2019-04-04T01:37:59.663Z,1.3
2019-04-04T01:40:59.703Z,1.3
2019-04-04T01:44:05.776Z,1.1
2019-04-04T01:46:59.864Z,1.3
2019-04-04T01:49:59.458Z,1.3
2019-04-04T01:53:00.269Z,1.1
2019-04-04T01:55:59.589Z,1.2
2019-04-04T01:58:59.631Z,1.1
2019-04-04T02:01:59.400Z,1.4
2019-04-04T02:04:59.394Z,1.3
2019-04-04T02:08:01.923Z,1.2
2019-04-04T02:10:59.895Z,1.3
2019-04-04T02:13:59.378Z,1.1
2019-04-04T02:16:59.556Z,1.2
2019-04-04T02:19:59.520Z,1.3
2019-04-04T02:23:02.207Z,1.3
2019-04-04T02:25:59.491Z,1.3
2019-04-04T02:28:59.473Z,1.3
2019-04-04T02:31:59.608Z,1.1
2019-04-04T02:34:59.557Z,1.1
2019-04-04T02:37:59.684Z,1.3
2019-04-04T02:40:59.429Z,1.2
2019-04-04T02:44:01.071Z,1.3
2019-04-04T02:46:59.520Z,1.2
2019-04-04T02:50:02.670Z,1.1
2019-04-04T02:52:59.739Z,1.1
2019-04-04T02:56:04.018Z,1
2019-04-04T02:58:59.473Z,1.1
2019-04-04T03:01:59.475Z,1.2
2019-04-04T03:04:59.600Z,1.3
2019-04-04T03:08:05.063Z,1.1
2019-04-04T03:10:59.614Z,1.1
2019-04-04T03:14:05.118Z,1.1
2019-04-04T03:16:59.460Z,1.3
2019-04-04T03:19:59.442Z,1.3
2019-04-04T03:23:01.954Z,1.3
2019-04-04T03:25:59.465Z,1.3
2019-04-04T03:29:11.211Z,1.3
2019-04-04T03:31:59.571Z,1.1
2019-04-04T03:34:59.553Z,1.4
2019-04-04T03:37:59.497Z,1.3
2019-04-04T03:40:59.734Z,1.6
2019-04-04T03:43:59.521Z,1.3
2019-04-04T03:46:59.693Z,1.1
2019-04-04T03:49:59.495Z,1.3
2019-04-04T03:52:59.481Z,1.3
2019-04-04T03:56:02.028Z,1.1
2019-04-04T03:59:01.265Z,1
2019-04-04T04:01:59.486Z,1.2
2019-04-04T04:05:02.648Z,1.1
2019-04-04T04:07:59.348Z,1
2019-04-04T04:10:59.423Z,1
2019-04-04T04:13:59.527Z,1.1
2019-04-04T04:16:59.493Z,1
2019-04-04T04:20:05.524Z,1.2
2019-04-04T04:22:59.543Z,1.1
2019-04-04T04:25:59.393Z,1.1
2019-04-04T04:28:59.453Z,1.2
2019-04-04T04:31:59.466Z,1.1
2019-04-04T04:34:59.612Z,1.1
2019-04-04T04:37:59.595Z,1.3
2019-04-04T04:40:59.578Z,1.2
2019-04-04T04:43:59.624Z,1
2019-04-04T04:46:59.399Z,1.1
2019-04-04T04:49:59.795Z,1.1
2019-04-04T04:52:59.489Z,1.1
2019-04-04T04:56:01.209Z,1.1
2019-04-04T04:58:59.525Z,1.1
2019-04-04T05:01:59.689Z,1.2
2019-04-04T05:05:00.341Z,1.1
2019-04-04T05:07:59.439Z,1.3
2019-04-04T05:10:59.403Z,1.1
2019-04-04T05:13:59.641Z,1.1
2019-04-04T05:16:59.505Z,1.3
2019-04-04T05:19:59.513Z,1.3
2019-04-04T05:22:59.390Z,1.3
2019-04-04T05:26:03.651Z,1.3
2019-04-04T05:28:59.494Z,1.2
2019-04-04T05:31:59.465Z,1.1
2019-04-04T05:35:02.415Z,1.7
2019-04-04T05:37:59.702Z,1.3
2019-04-04T05:40:59.429Z,1.1
2019-04-04T05:43:59.331Z,1.1
2019-04-04T05:47:00.376Z,1.1
2019-04-04T05:49:59.375Z,1.2
2019-04-04T05:52:59.578Z,1.3
2019-04-04T05:56:00.678Z,1.1
2019-04-04T05:58:59.354Z,1.3
2019-04-04T06:01:59.434Z,1.1
2019-04-04T06:04:59.447Z,1.1
2019-04-04T06:07:59.564Z,1.1
2019-04-04T06:10:59.480Z,1.1
2019-04-04T06:14:00.025Z,1.2
2019-04-04T06:16:59.256Z,1.2
2019-04-04T06:19:59.295Z,1.2
2019-04-04T06:22:59.506Z,1.2
2019-04-04T06:25:59.451Z,1.2
2019-04-04T06:28:59.755Z,1.2
2019-04-04T06:32:01.260Z,1.1
2019-04-04T06:34:59.510Z,1.1
2019-04-04T06:37:59.327Z,1.4
2019-04-04T06:41:01.833Z,1.2
2019-04-04T06:43:59.398Z,1.2
2019-04-04T06:47:02.492Z,1.1
2019-04-04T06:49:59.566Z,1.2
2019-04-04T06:53:00.355Z,1.3
2019-04-04T06:56:01.353Z,1.1
2019-04-04T06:58:59.332Z,1.3
2019-04-04T07:01:59.375Z,1.2
2019-04-04T07:04:59.397Z,1.3
2019-04-04T07:07:59.442Z,1.4
2019-04-04T07:11:22.015Z,1.3
2019-04-04T07:14:00.118Z,1.3
2019-04-04T07:17:00.638Z,1.4
2019-04-04T07:19:59.404Z,1.4
2019-04-04T07:22:59.456Z,1.4
2019-04-04T07:25:59.521Z,1.2
2019-04-04T07:28:59.282Z,1.1
2019-04-04T07:31:59.431Z,1.2
2019-04-04T07:34:59.484Z,1.3
2019-04-04T07:37:59.469Z,1.3
2019-04-04T07:40:59.421Z,1.3
2019-04-04T07:43:59.437Z,1.2
2019-04-04T07:46:59.381Z,1.3
2019-04-04T07:49:59.390Z,1.3
2019-04-04T07:52:59.362Z,1.3
2019-04-04T07:55:59.765Z,1.4
2019-04-04T07:58:59.497Z,1.3
2019-04-04T08:01:59.573Z,1.4
2019-04-04T08:04:59.224Z,1.3
2019-04-04T08:07:59.285Z,1.3
2019-04-04T08:10:59.440Z,1.4
2019-04-04T08:13:59.509Z,1.3
2019-04-04T08:16:59.495Z,1.3
2019-04-04T08:20:00.416Z,1.2
2019-04-04T08:22:59.257Z,1.3
2019-04-04T08:25:59.377Z,1.3
2019-04-04T08:28:59.315Z,1.3
2019-04-04T08:31:59.384Z,1.3
2019-04-04T08:34:59.404Z,1.3
2019-04-04T08:37:59.484Z,1.2
2019-04-04T08:40:59.460Z,1.2
2019-04-04T08:43:59.436Z,1.4
2019-04-04T08:46:59.352Z,1.2
2019-04-04T08:49:59.372Z,1.2
2019-04-04T08:52:59.454Z,1.2
2019-04-04T08:55:59.274Z,1.3
2019-04-04T08:58:59.347Z,1.4
2019-04-04T09:01:59.669Z,1.2
2019-04-04T09:05:13.041Z,1.3
2019-04-04T09:07:59.511Z,1.2
2019-04-04T09:10:59.547Z,1.1
2019-04-04T09:13:59.197Z,1.3
2019-04-04T09:16:59.241Z,1.1
2019-04-04T09:19:59.272Z,1.4
2019-04-04T09:22:59.409Z,1.3
2019-04-04T09:26:06.771Z,1.4
2019-04-04T09:28:59.396Z,1.1
2019-04-04T09:31:59.252Z,1.1
2019-04-04T09:34:59.297Z,1.4
2019-04-04T09:37:59.320Z,1.1
2019-04-04T09:40:59.422Z,1.2
2019-04-04T09:43:59.376Z,1.2
2019-04-04T09:47:06.126Z,1.2
2019-04-04T09:49:59.202Z,1.3
2019-04-04T09:52:59.261Z,1.1
2019-04-04T09:55:59.259Z,1.3
2019-04-04T09:58:59.286Z,1.3
2019-04-04T10:01:59.533Z,1.3
2019-04-04T10:04:59.387Z,1.1
2019-04-04T10:07:59.624Z,1.3
2019-04-04T10:10:59.262Z,1.4
2019-04-04T10:13:59.391Z,1.2
2019-04-04T10:16:59.339Z,1.3
2019-04-04T10:19:59.396Z,1.3
2019-04-04T10:22:59.402Z,1.3
2019-04-04T10:25:59.640Z,1.3
2019-04-04T10:28:59.220Z,1.3
2019-04-04T10:31:59.236Z,1.3
2019-04-04T10:34:59.278Z,1.4
2019-04-04T10:37:59.322Z,1.4
2019-04-04T10:40:59.350Z,1.3
2019-04-04T10:43:59.498Z,1.1
2019-04-04T10:46:59.245Z,1.4
2019-04-04T10:49:59.292Z,1.3
2019-04-04T10:52:59.313Z,1.4
2019-04-04T10:55:59.476Z,1.4
2019-04-04T10:58:59.405Z,1.4
2019-04-04T11:02:01.304Z,1.5
2019-04-04T11:04:59.192Z,1.4
2019-04-04T11:07:59.411Z,1.4
2019-04-04T11:10:59.443Z,1.4
2019-04-04T11:13:59.326Z,1.6
2019-04-04T11:16:59.342Z,1.2
2019-04-04T11:19:59.385Z,1.3
2019-04-04T11:22:59.242Z,1.4
2019-04-04T11:25:59.266Z,1.5
2019-04-04T11:28:59.401Z,1.5
2019-04-04T11:31:59.363Z,1.5
2019-04-04T11:34:59.433Z,1.4
2019-04-04T11:37:59.412Z,1.4
2019-04-04T11:40:59.356Z,1.6
2019-04-04T11:43:59.302Z,1.5
2019-04-04T11:46:59.281Z,1.4
2019-04-04T11:49:59.277Z,1.4
2019-04-04T11:52:59.306Z,1.4
2019-04-04T11:55:59.406Z,1.5
2019-04-04T11:58:59.192Z,1.5
2019-04-04T12:01:59.318Z,1.5
2019-04-04T12:04:59.324Z,1.4
2019-04-04T12:07:59.350Z,1.4
2019-04-04T12:10:59.443Z,1.5
2019-04-04T12:13:59.552Z,1.4
2019-04-04T12:16:59.162Z,1.6
2019-04-04T12:19:59.274Z,1.5
2019-04-04T12:22:59.276Z,1.5
2019-04-04T12:25:59.280Z,1.5
2019-04-04T12:28:59.456Z,1.5
2019-04-04T12:31:59.506Z,1.4
2019-04-04T12:34:59.206Z,1.5
2019-04-04T12:37:59.247Z,1.5
2019-04-04T12:40:59.237Z,1.5
2019-04-04T12:43:59.311Z,1.6
2019-04-04T12:46:59.337Z,1.4
2019-04-04T12:49:59.474Z,1.4
2019-04-04T12:52:59.162Z,1.5
2019-04-04T12:55:59.239Z,1.4
2019-04-04T12:58:59.370Z,1.5
2019-04-04T13:01:59.555Z,1.4
2019-04-04T13:04:59.429Z,1.4
2019-04-04T13:07:59.169Z,1.5
2019-04-04T13:10:59.205Z,1.4
2019-04-04T13:13:59.229Z,1.5
2019-04-04T13:16:59.363Z,1.5
2019-04-04T13:19:59.316Z,1.4
2019-04-04T13:22:59.717Z,1.3
2019-04-04T13:25:59.138Z,1.5
2019-04-04T13:28:59.252Z,1.4
2019-04-04T13:31:59.193Z,1.4
2019-04-04T13:35:00.327Z,1.5
2019-04-04T13:37:59.297Z,1.4
2019-04-04T13:40:59.341Z,1.3
2019-04-04T13:43:59.179Z,1.4
2019-04-04T13:47:04.098Z,1.4
2019-04-04T13:49:59.280Z,1.3
2019-04-04T13:52:59.248Z,1.4
2019-04-04T13:55:59.536Z,1.4
2019-04-04T13:59:06.330Z,1.5
2019-04-04T14:01:59.102Z,1.4
2019-04-04T14:05:14.875Z,1.4
2019-04-04T14:08:01.773Z,1.3
2019-04-04T14:10:59.240Z,1.4
2019-04-04T14:13:59.335Z,1.2
2019-04-04T14:16:59.271Z,1.3
2019-04-04T14:19:59.127Z,1.4
2019-04-04T14:22:59.253Z,1.3
2019-04-04T14:31:16.121Z,1.3
2019-04-04T14:34:15.907Z,1.4
2019-04-04T14:37:15.927Z,1.3
2019-04-04T14:40:16.007Z,1.2
2019-04-04T14:43:15.867Z,1.2
2019-04-04T14:46:16.057Z,1.4
2019-04-04T14:49:16.087Z,1.3
2019-04-04T14:52:21.002Z,1.4
2019-04-04T14:55:18.321Z,1.3
2019-04-04T14:58:15.823Z,1.4
2019-04-04T15:01:15.951Z,1.4
2019-04-04T15:04:15.997Z,1.3
2019-04-04T15:07:16.087Z,1.3
2019-04-04T15:10:15.871Z,1.3
2019-04-04T15:13:16.115Z,1.3
2019-04-04T15:16:16.064Z,1.1
2019-04-04T15:19:15.733Z,1.3
2019-04-04T15:22:16.000Z,1.4
2019-04-04T15:25:15.843Z,1.3
2019-04-04T15:28:15.783Z,1.3
2019-04-04T15:31:15.969Z,1.3
2019-04-04T15:34:16.040Z,1.2
2019-04-04T15:37:16.033Z,1.1
2019-04-04T15:40:16.022Z,1.3
2019-04-04T15:43:15.803Z,1.4
2019-04-04T15:46:15.862Z,1.1
2019-04-04T15:49:15.903Z,1.3
2019-04-04T15:52:15.902Z,1.4
2019-04-04T15:55:15.883Z,1.4
2019-04-04T15:58:15.996Z,1.4
2019-04-04T16:01:16.092Z,1.2
2019-04-04T16:04:15.835Z,1.2
2019-04-04T16:07:15.806Z,1.3
2019-04-04T16:10:15.920Z,1.3
2019-04-04T16:13:16.050Z,1.4
2019-04-04T16:16:16.052Z,1.3
2019-04-04T16:19:16.123Z,1.3
2019-04-04T16:22:15.968Z,1.2
2019-04-04T16:25:15.884Z,1.3
2019-04-04T16:28:15.927Z,1.3
2019-04-04T16:31:15.860Z,1.2
2019-04-04T16:34:15.818Z,1.2
2019-04-04T16:37:16.130Z,1.2
2019-04-04T16:40:15.612Z,1.1
2019-04-04T16:43:15.854Z,1.3
2019-04-04T16:46:16.037Z,1.3
2019-04-04T16:49:15.804Z,1.3
2019-04-04T16:52:16.096Z,1.4
2019-04-04T16:55:16.108Z,1.4
2019-04-04T16:58:15.814Z,1.3
2019-04-04T17:01:16.039Z,1.3
2019-04-04T17:04:15.927Z,1.2
2019-04-04T17:07:16.105Z,1.3
2019-04-04T17:10:16.035Z,1.4
2019-04-04T17:13:16.050Z,1.2
2019-04-04T17:16:15.816Z,1.2
2019-04-04T17:19:15.937Z,1.2
2019-04-04T17:22:15.887Z,1.1
2019-04-04T17:25:16.492Z,1.3
2019-04-04T17:28:16.006Z,1.3
2019-04-04T17:31:16.050Z,1.2
2019-04-04T17:34:15.987Z,1.3
2019-04-04T17:37:16.664Z,1.2
2019-04-04T17:40:16.413Z,1.3
2019-04-04T17:43:16.312Z,1.3
2019-04-04T17:46:16.133Z,1.3
2019-04-04T17:49:15.960Z,1.1
2019-04-04T17:52:16.275Z,1.2
2019-04-04T17:55:15.499Z,1.3
2019-04-04T17:58:16.303Z,1.1
2019-04-04T18:01:15.432Z,1.4
2019-04-04T18:04:15.434Z,1.2
2019-04-04T18:07:16.452Z,1.2
2019-04-04T18:10:15.575Z,3.1
2019-04-04T18:13:15.499Z,2
2019-04-04T18:16:15.441Z,3.5
2019-04-04T18:19:15.401Z,2.7
2019-04-04T18:22:15.694Z,7
2019-04-04T18:25:15.652Z,4.2
2019-04-04T18:28:15.919Z,3.8
2019-04-04T18:31:16.140Z,3.7
2019-04-04T18:34:15.749Z,1.7
2019-04-04T18:37:15.530Z,2.8
2019-04-04T18:40:15.698Z,1.5
2019-04-04T18:43:15.675Z,3.4
2019-04-04T18:46:15.646Z,2.7
2019-04-04T18:49:15.464Z,2.1
2019-04-04T18:52:15.619Z,1.4
2019-04-04T18:55:20.758Z,2
2019-04-04T18:58:15.566Z,1.3
2019-04-04T19:01:15.593Z,4.2
2019-04-04T19:04:15.667Z,2.1
2019-04-04T19:07:15.373Z,1.3
2019-04-04T19:10:15.462Z,1.5
2019-04-04T19:13:16.219Z,1.3
2019-04-04T19:16:15.592Z,1.3
2019-04-04T19:19:15.703Z,2.3
2019-04-04T19:22:15.658Z,1.8
2019-04-04T19:25:15.404Z,1.9
2019-04-04T19:28:15.555Z,1.4
2019-04-04T19:31:15.480Z,1.8
2019-04-04T19:34:15.400Z,1.4
2019-04-04T19:37:15.574Z,1.5
2019-04-04T19:40:15.700Z,1.5
2019-04-04T19:43:18.887Z,2.2
2019-04-04T19:46:15.490Z,2.2
2019-04-04T19:49:15.445Z,1.4
2019-04-04T19:52:15.609Z,1.6
2019-04-04T19:55:17.233Z,3.6
2019-04-04T19:58:15.635Z,2.2
2019-04-04T20:01:15.686Z,1.4
2019-04-04T20:04:15.542Z,1.8
2019-04-04T20:07:15.554Z,2.1
2019-04-04T20:10:15.502Z,2.2
2019-04-04T20:13:15.633Z,1.5
2019-04-04T20:16:15.586Z,3
2019-04-04T20:19:15.718Z,2.3
2019-04-04T20:22:15.348Z,2.8
2019-04-04T20:25:15.398Z,2.2
2019-04-04T20:28:15.553Z,2.5
2019-04-04T20:31:15.536Z,3.6
2019-04-04T20:34:15.517Z,2
2019-04-04T20:37:15.585Z,2.3
2019-04-04T20:40:15.386Z,4.3
2019-04-04T20:43:15.557Z,2.7
2019-04-04T20:46:15.544Z,2
2019-04-04T20:49:15.563Z,2.1
2019-04-04T20:52:15.387Z,2.4
2019-04-04T20:55:15.645Z,2.3
2019-04-04T20:58:15.366Z,2.8
2019-04-04T21:01:15.418Z,3
2019-04-04T21:04:15.357Z,2.9
2019-04-04T21:07:15.547Z,1.6
2019-04-04T21:10:15.525Z,2.1
2019-04-04T21:13:15.628Z,2.3
2019-04-04T21:16:15.380Z,3.9
2019-04-04T21:19:15.449Z,2.7
2019-04-04T21:22:28.321Z,2.8
2019-04-04T21:25:15.586Z,2.3
2019-04-04T21:28:15.652Z,3.8
2019-04-04T21:31:15.478Z,1.9
2019-04-04T21:34:17.769Z,1.6
2019-04-04T21:37:15.506Z,1.9
2019-04-04T21:40:15.442Z,1.8
2019-04-04T21:43:15.529Z,1.9
2019-04-04T21:46:15.533Z,1.5
2019-04-04T21:49:15.557Z,2.1
2019-04-04T21:52:15.416Z,1.9
2019-04-04T21:55:15.434Z,1.7
2019-04-04T21:58:15.357Z,1.9
2019-04-04T22:01:15.565Z,1.6
2019-04-04T22:04:16.268Z,1.6
2019-04-04T22:07:15.725Z,1.8
2019-04-04T22:10:15.298Z,1.5
2019-04-04T22:13:15.558Z,1.5
2019-04-04T22:16:15.444Z,1.9
2019-04-04T22:19:15.556Z,1.7
2019-04-04T22:22:15.324Z,1.6
2019-04-04T22:25:15.723Z,1.5
2019-04-04T22:28:15.429Z,1.6
2019-04-04T22:31:15.542Z,1.7
2019-04-04T22:34:15.538Z,1.7
2019-04-04T22:37:15.354Z,2.1
2019-04-04T22:40:15.605Z,1.6
2019-04-04T22:43:15.613Z,1.5
2019-04-04T22:46:15.332Z,1.5
2019-04-04T22:49:15.310Z,1.6
2019-04-04T22:52:15.505Z,2
2019-04-04T22:55:15.462Z,3
2019-04-04T22:58:29.213Z,1.6
2019-04-04T23:01:15.409Z,2
2019-04-04T23:04:15.423Z,1.9
2019-04-04T23:07:15.456Z,1.6
2019-04-04T23:10:15.454Z,1.7
2019-04-04T23:13:15.365Z,1.6
2019-04-04T23:16:15.553Z,1.7
2019-04-04T23:19:15.677Z,1.6
2019-04-04T23:22:15.317Z,1.6
2019-04-04T23:25:15.305Z,1.7
2019-04-04T23:28:15.439Z,1.7
2019-04-04T23:31:15.449Z,1.8
2019-04-04T23:34:15.560Z,1.6
2019-04-04T23:37:15.538Z,1.6
2019-04-04T23:40:15.335Z,1.6
2019-04-04T23:43:15.362Z,1.7
2019-04-04T23:46:15.428Z,1.6
2019-04-04T23:49:15.247Z,1.6
2019-04-04T23:52:15.547Z,1.7
2019-04-04T23:55:15.522Z,2.3
2019-04-04T23:58:15.672Z,1.7
